New Orleans Weather Page

Compiled by Joey Kelly

 

Want a detailed forecast?
Or want to check out the National Hurricane Center?
Or take a look at Jay C. Theriot's excellent hurricane tracking page instead?
Or the National Weather Service's Southeast Louisiana page?

 

NOAA Weather: Moisant International Airport

Data is taken from the Aviation Weather Service at NOAA.

This is the current weather at New Orleans International Airport
in New Orleans, Louisiana, United States:

Temp: 0.0 F
Wind: 11.5 MPH
Wind direction: East/Northeast at 060°
Pressure: inches of Mercury
Visibility: P6 Statute Miles
Sky: Broken at 2500ft
Weather:

The raw METAR data is
PRE< size="+1">KMSY 121238Z 1213/1318 06010KT P6SM BKN025


 

Southeast Louisiana Radar
Southeast Louisiana Radar

 

Gulf and Caribbean Radar
Gulf and Caribbean Radar

 

USA Radar
USA Radar

 

7-Day Forecast (WWL)
7-Day Forecast (WWL)

 

Southeast Louisiana Temperatures
Southeast Louisiana Temperatures

 

Southeastern U.S. Temperatures
Southeastern U.S. Temperatures

 

Infrared Tropical Satellite
Infrared Tropical Satellite

 

Atlantic Infrared Tropical Satellite
Atlantic Infrared Tropical Satellite

 

NHC 2-Day Weather Outlook
NHC 2-Day Weather Outlook

 

NHC Atlantic Tropical Cyclone Avtivity
NHC Atlantic Tropical Cyclone Avtivity

 

America and Atlantic Wind Patterns (interactive widget)

 


Other Weather Links:

National Hurricane Center
Louisiana Hurricane Season Notes

 

 

KellyNet Computer Services